sensor_id;sensor_type;location;lat;lon;timestamp;pressure;altitude;pressure_sealevel;temperature;humidity
51496;BME280;37572;52.094;4.870;2023-04-08T00:00:55;102314.28;;;19.03;46.96
51496;BME280;37572;52.094;4.870;2023-04-08T00:03:20;102306.88;;;18.97;47.18
51496;BME280;37572;52.094;4.870;2023-04-08T00:05:46;102315.81;;;18.98;47.31
51496;BME280;37572;52.094;4.870;2023-04-08T00:08:11;102307.91;;;18.96;47.12
51496;BME280;37572;52.094;4.870;2023-04-08T00:10:37;102303.69;;;18.94;47.17
51496;BME280;37572;52.094;4.870;2023-04-08T00:13:03;102315.00;;;18.89;47.26
51496;BME280;37572;52.094;4.870;2023-04-08T00:15:28;102312.31;;;18.89;47.73
51496;BME280;37572;52.094;4.870;2023-04-08T00:17:53;102308.28;;;18.85;47.46
51496;BME280;37572;52.094;4.870;2023-04-08T00:20:20;102311.84;;;18.85;47.44
51496;BME280;37572;52.094;4.870;2023-04-08T00:22:45;102307.59;;;18.83;47.60
51496;BME280;37572;52.094;4.870;2023-04-08T00:25:11;102313.31;;;18.80;47.84
51496;BME280;37572;52.094;4.870;2023-04-08T00:27:36;102304.41;;;18.79;47.69
51496;BME280;37572;52.094;4.870;2023-04-08T00:30:02;102307.25;;;18.78;47.85
51496;BME280;37572;52.094;4.870;2023-04-08T00:32:27;102311.81;;;18.77;47.69
51496;BME280;37572;52.094;4.870;2023-04-08T00:34:53;102318.56;;;18.73;47.69
51496;BME280;37572;52.094;4.870;2023-04-08T00:37:19;102313.19;;;18.73;47.71
51496;BME280;37572;52.094;4.870;2023-04-08T00:39:45;102312.50;;;18.71;48.13
51496;BME280;37572;52.094;4.870;2023-04-08T00:42:10;102317.09;;;18.71;48.08
51496;BME280;37572;52.094;4.870;2023-04-08T00:44:35;102313.53;;;18.70;47.95
51496;BME280;37572;52.094;4.870;2023-04-08T00:47:02;102320.94;;;18.68;48.49
51496;BME280;37572;52.094;4.870;2023-04-08T00:49:29;102317.59;;;18.66;48.35
51496;BME280;37572;52.094;4.870;2023-04-08T00:51:55;102316.75;;;18.65;48.53
51496;BME280;37572;52.094;4.870;2023-04-08T00:54:20;102318.59;;;18.65;48.86
51496;BME280;37572;52.094;4.870;2023-04-08T00:56:46;102313.38;;;18.63;49.21
51496;BME280;37572;52.094;4.870;2023-04-08T00:59:11;102315.41;;;18.61;49.36
51496;BME280;37572;52.094;4.870;2023-04-08T01:04:38;102320.31;;;18.58;49.49
51496;BME280;37572;52.094;4.870;2023-04-08T01:07:14;102323.19;;;18.56;49.10
51496;BME280;37572;52.094;4.870;2023-04-08T01:09:45;102314.44;;;18.54;49.34
51496;BME280;37572;52.094;4.870;2023-04-08T01:12:17;102321.84;;;18.52;49.66
51496;BME280;37572;52.094;4.870;2023-04-08T01:14:46;102324.72;;;18.51;49.47
51496;BME280;37572;52.094;4.870;2023-04-08T01:17:14;102323.03;;;18.49;49.77
51496;BME280;37572;52.094;4.870;2023-04-08T01:19:42;102320.50;;;18.48;49.40
51496;BME280;37572;52.094;4.870;2023-04-08T01:24:44;102322.53;;;18.46;49.63
51496;BME280;37572;52.094;4.870;2023-04-08T01:27:12;102326.06;;;18.46;49.30
51496;BME280;37572;52.094;4.870;2023-04-08T01:29:38;102329.09;;;18.43;49.46
51496;BME280;37572;52.094;4.870;2023-04-08T01:32:04;102332.00;;;18.42;49.40
51496;BME280;37572;52.094;4.870;2023-04-08T01:34:33;102334.00;;;18.40;49.78
51496;BME280;37572;52.094;4.870;2023-04-08T01:37:01;102328.59;;;18.40;49.53
51496;BME280;37572;52.094;4.870;2023-04-08T01:39:26;102328.13;;;18.36;49.74
51496;BME280;37572;52.094;4.870;2023-04-08T01:41:53;102329.13;;;18.35;49.80
51496;BME280;37572;52.094;4.870;2023-04-08T01:44:20;102336.38;;;18.35;49.48
51496;BME280;37572;52.094;4.870;2023-04-08T01:46:48;102328.44;;;18.33;49.64
51496;BME280;37572;52.094;4.870;2023-04-08T01:49:15;102335.88;;;18.31;49.58
51496;BME280;37572;52.094;4.870;2023-04-08T01:51:40;102343.31;;;18.29;49.20
51496;BME280;37572;52.094;4.870;2023-04-08T01:54:07;102345.81;;;18.30;49.64
51496;BME280;37572;52.094;4.870;2023-04-08T01:56:36;102343.31;;;18.29;49.40
51496;BME280;37572;52.094;4.870;2023-04-08T01:59:04;102342.44;;;18.28;49.25
51496;BME280;37572;52.094;4.870;2023-04-08T02:01:34;102343.13;;;18.30;49.34
51496;BME280;37572;52.094;4.870;2023-04-08T02:04:00;102350.34;;;18.30;49.28
51496;BME280;37572;52.094;4.870;2023-04-08T02:06:27;102341.94;;;18.25;49.13
51496;BME280;37572;52.094;4.870;2023-04-08T02:08:54;102338.91;;;18.28;49.22
51496;BME280;37572;52.094;4.870;2023-04-08T02:11:19;102344.97;;;18.30;49.42
51496;BME280;37572;52.094;4.870;2023-04-08T02:13:45;102341.28;;;18.31;49.24
51496;BME280;37572;52.094;4.870;2023-04-08T02:16:30;102347.00;;;18.28;48.99
51496;BME280;37572;52.094;4.870;2023-04-08T02:19:01;102353.06;;;18.30;49.17
51496;BME280;37572;52.094;4.870;2023-04-08T02:21:36;102354.09;;;18.29;48.77
51496;BME280;37572;52.094;4.870;2023-04-08T02:24:04;102352.06;;;18.31;49.16
51496;BME280;37572;52.094;4.870;2023-04-08T02:26:32;102345.13;;;18.28;49.13
51496;BME280;37572;52.094;4.870;2023-04-08T02:29:01;102344.47;;;18.26;48.65
51496;BME280;37572;52.094;4.870;2023-04-08T02:31:28;102355.41;;;18.25;49.26
51496;BME280;37572;52.094;4.870;2023-04-08T02:33:54;102350.38;;;18.22;49.12
51496;BME280;37572;52.094;4.870;2023-04-08T02:36:21;102356.44;;;18.24;48.98
51496;BME280;37572;52.094;4.870;2023-04-08T02:38:47;102349.38;;;18.23;48.89
51496;BME280;37572;52.094;4.870;2023-04-08T02:41:13;102354.09;;;18.21;48.74
51496;BME280;37572;52.094;4.870;2023-04-08T02:43:40;102357.63;;;18.21;49.06
51496;BME280;37572;52.094;4.870;2023-04-08T02:46:05;102359.47;;;18.21;48.64
51496;BME280;37572;52.094;4.870;2023-04-08T02:48:31;102362.19;;;18.21;49.13
51496;BME280;37572;52.094;4.870;2023-04-08T02:50:56;102362.19;;;18.21;48.71
51496;BME280;37572;52.094;4.870;2023-04-08T02:53:22;102359.47;;;18.21;49.06
51496;BME280;37572;52.094;4.870;2023-04-08T02:55:48;102357.78;;;18.20;49.07
51496;BME280;37572;52.094;4.870;2023-04-08T02:58:13;102360.47;;;18.20;48.75
51496;BME280;37572;52.094;4.870;2023-04-08T03:00:38;102366.91;;;18.19;49.14
51496;BME280;37572;52.094;4.870;2023-04-08T03:03:04;102354.59;;;18.16;48.64
51496;BME280;37572;52.094;4.870;2023-04-08T03:05:31;102361.84;;;18.16;48.71
51496;BME280;37572;52.094;4.870;2023-04-08T03:07:56;102359.16;;;18.16;48.91
51496;BME280;37572;52.094;4.870;2023-04-08T03:10:21;102358.66;;;18.12;48.80
51496;BME280;37572;52.094;4.870;2023-04-08T03:12:47;102361.19;;;18.14;48.84
51496;BME280;37572;52.094;4.870;2023-04-08T03:15:12;102360.31;;;18.13;48.76
51496;BME280;37572;52.094;4.870;2023-04-08T03:17:37;102367.56;;;18.12;48.78
51496;BME280;37572;52.094;4.870;2023-04-08T03:20:03;102364.22;;;18.10;48.64
51496;BME280;37572;52.094;4.870;2023-04-08T03:22:32;102363.00;;;18.05;49.03
51496;BME280;37572;52.094;4.870;2023-04-08T03:24:57;102370.59;;;18.01;49.06
51496;BME280;37572;52.094;4.870;2023-04-08T03:27:23;102365.88;;;18.03;48.93
51496;BME280;37572;52.094;4.870;2023-04-08T03:29:48;102359.81;;;18.01;48.91
51496;BME280;37572;52.094;4.870;2023-04-08T03:32:13;102359.16;;;17.99;48.83
51496;BME280;37572;52.094;4.870;2023-04-08T03:34:39;102363.34;;;18.02;48.93
51496;BME280;37572;52.094;4.870;2023-04-08T03:37:04;102358.81;;;18.02;48.72
51496;BME280;37572;52.094;4.870;2023-04-08T03:39:29;102365.88;;;18.03;48.97
51496;BME280;37572;52.094;4.870;2023-04-08T03:41:55;102374.97;;;18.02;48.67
51496;BME280;37572;52.094;4.870;2023-04-08T03:44:20;102370.94;;;17.98;48.91
51496;BME280;37572;52.094;4.870;2023-04-08T03:46:46;102369.59;;;17.94;48.98
51496;BME280;37572;52.094;4.870;2023-04-08T03:49:11;102374.66;;;17.97;49.21
51496;BME280;37572;52.094;4.870;2023-04-08T03:51:36;102376.31;;;17.98;48.93
51496;BME280;37572;52.094;4.870;2023-04-08T03:54:02;102383.56;;;17.98;49.07
51496;BME280;37572;52.094;4.870;2023-04-08T03:56:27;102384.41;;;17.98;49.06
51496;BME280;37572;52.094;4.870;2023-04-08T03:58:52;102385.59;;;17.96;48.84
51496;BME280;37572;52.094;4.870;2023-04-08T04:01:18;102393.19;;;17.92;48.85
51496;BME280;37572;52.094;4.870;2023-04-08T04:03:43;102392.16;;;17.93;48.61
51496;BME280;37572;52.094;4.870;2023-04-08T04:06:08;102396.19;;;17.89;49.04
51496;BME280;37572;52.094;4.870;2023-04-08T04:08:34;102397.03;;;17.89;49.02
51496;BME280;37572;52.094;4.870;2023-04-08T04:10:59;102393.66;;;17.87;48.81
51496;BME280;37572;52.094;4.870;2023-04-08T04:13:25;102390.81;;;17.89;49.07
51496;BME280;37572;52.094;4.870;2023-04-08T04:15:50;102391.81;;;17.88;49.27
51496;BME280;37572;52.094;4.870;2023-04-08T04:18:15;102395.34;;;17.88;49.07
51496;BME280;37572;52.094;4.870;2023-04-08T04:20:41;102399.72;;;17.89;48.82
51496;BME280;37572;52.094;4.870;2023-04-08T04:23:07;102406.97;;;17.89;49.07
51496;BME280;37572;52.094;4.870;2023-04-08T04:25:32;102407.13;;;17.87;48.87
51496;BME280;37572;52.094;4.870;2023-04-08T04:27:58;102408.25;;;17.85;48.67
51496;BME280;37572;52.094;4.870;2023-04-08T04:30:23;102412.66;;;17.86;49.11
51496;BME280;37572;52.094;4.870;2023-04-08T04:32:48;102420.75;;;17.86;48.92
51496;BME280;37572;52.094;4.870;2023-04-08T04:35:14;102420.91;;;17.84;48.97
51496;BME280;37572;52.094;4.870;2023-04-08T04:37:39;102421.91;;;17.83;49.10
51496;BME280;37572;52.094;4.870;2023-04-08T04:40:05;102426.47;;;17.83;48.88
51496;BME280;37572;52.094;4.870;2023-04-08T04:42:31;102429.16;;;17.83;49.08
51496;BME280;37572;52.094;4.870;2023-04-08T04:44:57;102435.53;;;17.82;49.29
51496;BME280;37572;52.094;4.870;2023-04-08T04:47:23;102435.03;;;17.78;49.33
51496;BME280;37572;52.094;4.870;2023-04-08T04:49:48;102436.38;;;17.74;49.08
51496;BME280;37572;52.094;4.870;2023-04-08T04:52:13;102433.69;;;17.74;48.88
51496;BME280;37572;52.094;4.870;2023-04-08T04:54:39;102432.81;;;17.73;49.34
51496;BME280;37572;52.094;4.870;2023-04-08T04:57:04;102439.22;;;17.72;49.19
51496;BME280;37572;52.094;4.870;2023-04-08T04:59:30;102437.69;;;17.70;49.37
51496;BME280;37572;52.094;4.870;2023-04-08T05:01:55;102445.94;;;17.68;49.01
51496;BME280;37572;52.094;4.870;2023-04-08T05:04:24;102444.13;;;17.69;49.39
51496;BME280;37572;52.094;4.870;2023-04-08T05:06:50;102450.69;;;17.74;49.04
51496;BME280;37572;52.094;4.870;2023-04-08T05:09:15;102451.03;;;17.80;48.72
51496;BME280;37572;52.094;4.870;2023-04-08T05:11:40;102450.72;;;17.83;48.71
51496;BME280;37572;52.094;4.870;2023-04-08T05:14:06;102457.78;;;17.84;48.51
51496;BME280;37572;52.094;4.870;2023-04-08T05:16:32;102458.63;;;17.84;48.67
51496;BME280;37572;52.094;4.870;2023-04-08T05:18:57;102457.63;;;17.85;48.88
51496;BME280;37572;52.094;4.870;2023-04-08T05:21:23;102455.78;;;17.86;48.75
51496;BME280;37572;52.094;4.870;2023-04-08T05:23:48;102460.88;;;17.89;48.49
51496;BME280;37572;52.094;4.870;2023-04-08T05:26:17;102462.53;;;17.90;48.73
51496;BME280;37572;52.094;4.870;2023-04-08T05:28:42;102460.53;;;17.92;48.76
51496;BME280;37572;52.094;4.870;2023-04-08T05:31:07;102462.06;;;17.94;48.59
51496;BME280;37572;52.094;4.870;2023-04-08T05:33:33;102471.66;;;17.97;48.68
51496;BME280;37572;52.094;4.870;2023-04-08T05:35:58;102466.94;;;17.99;48.73
51496;BME280;37572;52.094;4.870;2023-04-08T05:38:23;102473.69;;;18.03;48.29
51496;BME280;37572;52.094;4.870;2023-04-08T05:40:49;102470.81;;;18.05;48.34
51496;BME280;37572;52.094;4.870;2023-04-08T05:43:14;102472.34;;;18.07;48.65
51496;BME280;37572;52.094;4.870;2023-04-08T05:45:39;102473.84;;;18.10;48.57
51496;BME280;37572;52.094;4.870;2023-04-08T05:48:05;102468.31;;;18.11;48.28
51496;BME280;37572;52.094;4.870;2023-04-08T05:50:30;102475.41;;;18.12;48.36
51496;BME280;37572;52.094;4.870;2023-04-08T05:52:55;102480.63;;;18.14;48.20
51496;BME280;37572;52.094;4.870;2023-04-08T05:55:21;102481.28;;;18.16;47.75
51496;BME280;37572;52.094;4.870;2023-04-08T05:57:46;102475.09;;;18.24;47.92
51496;BME280;37572;52.094;4.870;2023-04-08T06:00:11;102478.13;;;18.29;47.79
51496;BME280;37572;52.094;4.870;2023-04-08T06:02:37;102486.53;;;18.34;47.92
51496;BME280;37572;52.094;4.870;2023-04-08T06:05:03;102486.72;;;18.41;47.88
51496;BME280;37572;52.094;4.870;2023-04-08T06:07:28;102489.91;;;18.44;48.07
51496;BME280;37572;52.094;4.870;2023-04-08T06:09:54;102496.31;;;18.43;47.82
51496;BME280;37572;52.094;4.870;2023-04-08T06:12:19;102484.69;;;18.43;48.05
51496;BME280;37572;52.094;4.870;2023-04-08T06:14:45;102489.75;;;18.46;48.35
51496;BME280;37572;52.094;4.870;2023-04-08T06:17:10;102500.38;;;18.47;48.22
51496;BME280;37572;52.094;4.870;2023-04-08T06:19:36;102503.56;;;18.51;48.45
51496;BME280;37572;52.094;4.870;2023-04-08T06:22:01;102498.84;;;18.53;48.08
51496;BME280;37572;52.094;4.870;2023-04-08T06:24:26;102506.78;;;18.55;48.52
51496;BME280;37572;52.094;4.870;2023-04-08T06:26:53;102513.53;;;18.59;48.29
51496;BME280;37572;52.094;4.870;2023-04-08T06:29:22;102517.56;;;18.63;48.13
51496;BME280;37572;52.094;4.870;2023-04-08T06:31:48;102522.97;;;18.63;48.06
51496;BME280;37572;52.094;4.870;2023-04-08T06:34:14;102523.81;;;18.63;48.04
51496;BME280;37572;52.094;4.870;2023-04-08T06:36:40;102525.50;;;18.64;48.12
51496;BME280;37572;52.094;4.870;2023-04-08T06:39:05;102530.72;;;18.66;48.48
51496;BME280;37572;52.094;4.870;2023-04-08T06:41:30;102529.72;;;18.67;48.53
51496;BME280;37572;52.094;4.870;2023-04-08T06:43:56;102533.94;;;18.70;48.40
51496;BME280;37572;52.094;4.870;2023-04-08T06:46:21;102535.63;;;18.71;48.19
51496;BME280;37572;52.094;4.870;2023-04-08T06:48:46;102538.16;;;18.72;48.41
51496;BME280;37572;52.094;4.870;2023-04-08T06:51:12;102538.16;;;18.72;48.21
51496;BME280;37572;52.094;4.870;2023-04-08T06:53:37;102544.22;;;18.74;48.21
51496;BME280;37572;52.094;4.870;2023-04-08T06:56:03;102543.38;;;18.74;48.07
51496;BME280;37572;52.094;4.870;2023-04-08T06:58:28;102541.34;;;18.76;48.50
51496;BME280;37572;52.094;4.870;2023-04-08T07:00:54;102550.13;;;18.78;48.64
51496;BME280;37572;52.094;4.870;2023-04-08T07:03:20;102557.72;;;18.82;48.53
51496;BME280;37572;52.094;4.870;2023-04-08T07:05:46;102560.13;;;18.85;48.52
51496;BME280;37572;52.094;4.870;2023-04-08T07:08:11;102563.47;;;18.88;47.95
51496;BME280;37572;52.094;4.870;2023-04-08T07:10:37;102566.69;;;18.91;48.60
51496;BME280;37572;52.094;4.870;2023-04-08T07:13:02;102577.16;;;18.94;48.17
51496;BME280;37572;52.094;4.870;2023-04-08T07:15:28;102571.59;;;18.96;48.38
51496;BME280;37572;52.094;4.870;2023-04-08T07:17:53;102574.94;;;18.98;47.93
51496;BME280;37572;52.094;4.870;2023-04-08T07:20:21;102578.84;;;19.03;48.32
51496;BME280;37572;52.094;4.870;2023-04-08T07:22:47;102580.19;;;19.08;48.37
51496;BME280;37572;52.094;4.870;2023-04-08T07:25:12;102579.34;;;19.07;48.06
51496;BME280;37572;52.094;4.870;2023-04-08T07:27:37;102584.41;;;19.10;47.90
51496;BME280;37572;52.094;4.870;2023-04-08T07:30:03;102581.50;;;19.12;48.04
51496;BME280;37572;52.094;4.870;2023-04-08T07:32:28;102583.03;;;19.14;47.93
51496;BME280;37572;52.094;4.870;2023-04-08T07:34:54;102587.44;;;19.15;48.16
51496;BME280;37572;52.094;4.870;2023-04-08T07:37:19;102587.94;;;19.19;47.94
51496;BME280;37572;52.094;4.870;2023-04-08T07:39:44;102592.31;;;19.20;47.95
51496;BME280;37572;52.094;4.870;2023-04-08T07:42:10;102593.84;;;19.22;48.13
51496;BME280;37572;52.094;4.870;2023-04-08T07:44:36;102585.41;;;19.26;47.80
51496;BME280;37572;52.094;4.870;2023-04-08T07:47:02;102593.81;;;19.31;47.98
51496;BME280;37572;52.094;4.870;2023-04-08T07:49:27;102595.16;;;19.35;47.77
51496;BME280;37572;52.094;4.870;2023-04-08T07:51:53;102597.53;;;19.38;47.80
51496;BME280;37572;52.094;4.870;2023-04-08T07:54:18;102589.25;;;19.39;47.75
51496;BME280;37572;52.094;4.870;2023-04-08T07:56:43;102589.06;;;19.41;47.63
51496;BME280;37572;52.094;4.870;2023-04-08T07:59:12;102590.78;;;19.42;47.68
51496;BME280;37572;52.094;4.870;2023-04-08T08:01:37;102596.84;;;19.44;47.76
51496;BME280;37572;52.094;4.870;2023-04-08T08:04:03;102592.75;;;19.48;47.47
51496;BME280;37572;52.094;4.870;2023-04-08T08:06:29;102600.69;;;19.50;47.37
51496;BME280;37572;52.094;4.870;2023-04-08T08:08:56;102604.59;;;19.55;47.60
51496;BME280;37572;52.094;4.870;2023-04-08T08:11:21;102599.69;;;19.59;47.75
51496;BME280;37572;52.094;4.870;2023-04-08T08:13:47;102599.00;;;19.65;47.32
51496;BME280;37572;52.094;4.870;2023-04-08T08:16:13;102599.97;;;19.72;47.15
51496;BME280;37572;52.094;4.870;2023-04-08T08:18:39;102601.84;;;19.80;47.11
51496;BME280;37572;52.094;4.870;2023-04-08T08:21:05;102609.06;;;19.88;46.91
51496;BME280;37572;52.094;4.870;2023-04-08T08:23:30;102607.88;;;19.99;46.63
51496;BME280;37572;52.094;4.870;2023-04-08T08:26:06;102606.13;;;20.06;46.83
51496;BME280;37572;52.094;4.870;2023-04-08T08:28:33;102606.09;;;20.14;46.32
51496;BME280;37572;52.094;4.870;2023-04-08T08:30:59;102610.97;;;20.19;45.95
51496;BME280;37572;52.094;4.870;2023-04-08T08:33:24;102610.44;;;20.23;46.20
51496;BME280;37572;52.094;4.870;2023-04-08T08:35:50;102613.66;;;20.27;45.88
51496;BME280;37572;52.094;4.870;2023-04-08T08:38:16;102614.78;;;20.32;45.79
51496;BME280;37572;52.094;4.870;2023-04-08T08:40:42;102615.44;;;20.34;45.74
51496;BME280;37572;52.094;4.870;2023-04-08T08:43:08;102617.44;;;20.41;45.59
51496;BME280;37572;52.094;4.870;2023-04-08T08:45:38;102616.91;;;20.45;45.64
51496;BME280;37572;52.094;4.870;2023-04-08T08:48:03;102620.94;;;20.49;45.52
51496;BME280;37572;52.094;4.870;2023-04-08T08:50:28;102629.34;;;20.55;45.48
51496;BME280;37572;52.094;4.870;2023-04-08T08:52:54;102628.84;;;20.59;45.51
51496;BME280;37572;52.094;4.870;2023-04-08T08:55:20;102628.16;;;20.65;45.37
51496;BME280;37572;52.094;4.870;2023-04-08T08:57:49;102634.88;;;20.69;45.42
51496;BME280;37572;52.094;4.870;2023-04-08T09:00:15;102633.50;;;20.74;45.27
51496;BME280;37572;52.094;4.870;2023-04-08T09:02:41;102628.28;;;20.72;44.89
51496;BME280;37572;52.094;4.870;2023-04-08T09:05:07;102627.06;;;20.75;44.62
51496;BME280;37572;52.094;4.870;2023-04-08T09:07:37;102628.75;;;20.76;44.80
51496;BME280;37572;52.094;4.870;2023-04-08T09:10:06;102631.09;;;20.79;44.48
51496;BME280;37572;52.094;4.870;2023-04-08T09:12:31;102635.47;;;20.80;44.33
51496;BME280;37572;52.094;4.870;2023-04-08T09:15:14;102636.34;;;20.80;44.65
51496;BME280;37572;52.094;4.870;2023-04-08T09:17:40;102634.59;;;20.87;44.10
51496;BME280;37572;52.094;4.870;2023-04-08T09:20:10;102643.19;;;20.91;44.20
51496;BME280;37572;52.094;4.870;2023-04-08T09:27:49;102632.47;;;20.98;43.88
51496;BME280;37572;52.094;4.870;2023-04-08T09:30:16;102636.88;;;20.99;43.95
51496;BME280;37572;52.094;4.870;2023-04-08T09:32:49;102644.47;;;21.03;44.01
51496;BME280;37572;52.094;4.870;2023-04-08T09:35:16;102638.47;;;21.08;43.62
51496;BME280;37572;52.094;4.870;2023-04-08T09:37:41;102641.19;;;21.08;43.49
51496;BME280;37572;52.094;4.870;2023-04-08T09:40:07;102650.84;;;21.11;43.47
51496;BME280;37572;52.094;4.870;2023-04-08T09:42:35;102646.13;;;21.04;43.80
51496;BME280;37572;52.094;4.870;2023-04-08T09:45:03;102642.59;;;21.04;43.83
51496;BME280;37572;52.094;4.870;2023-04-08T09:47:35;102648.31;;;21.09;43.71
51496;BME280;37572;52.094;4.870;2023-04-08T09:50:03;102646.06;;;21.13;43.74
51496;BME280;37572;52.094;4.870;2023-04-08T09:52:41;102646.25;;;21.11;43.90
51496;BME280;37572;52.094;4.870;2023-04-08T09:55:08;102653.66;;;21.17;43.77
51496;BME280;37572;52.094;4.870;2023-04-08T09:57:58;102646.19;;;21.19;43.49
51496;BME280;37572;52.094;4.870;2023-04-08T10:00:32;102648.53;;;21.22;43.57
51496;BME280;37572;52.094;4.870;2023-04-08T10:03:18;102639.84;;;21.27;43.52
51496;BME280;37572;52.094;4.870;2023-04-08T10:05:46;102639.97;;;21.34;43.43
51496;BME280;37572;52.094;4.870;2023-04-08T10:08:12;102633.59;;;21.41;43.33
51496;BME280;37572;52.094;4.870;2023-04-08T10:10:39;102637.53;;;21.39;43.51
51496;BME280;37572;52.094;4.870;2023-04-08T10:13:06;102639.88;;;21.42;43.49
51496;BME280;37572;52.094;4.870;2023-04-08T10:15:32;102637.81;;;21.44;43.62
51496;BME280;37572;52.094;4.870;2023-04-08T10:25:35;102642.84;;;21.55;43.86
51496;BME280;37572;52.094;4.870;2023-04-08T10:30:42;102642.66;;;21.57;43.67
51496;BME280;37572;52.094;4.870;2023-04-08T10:33:10;102643.31;;;21.59;43.37
51496;BME280;37572;52.094;4.870;2023-04-08T10:35:40;102639.56;;;21.60;43.33
51496;BME280;37572;52.094;4.870;2023-04-08T10:38:12;102644.31;;;21.58;43.04
51496;BME280;37572;52.094;4.870;2023-04-08T10:40:39;102643.47;;;21.57;42.91
51496;BME280;37572;52.094;4.870;2023-04-08T10:43:10;102640.66;;;21.51;42.52
51496;BME280;37572;52.094;4.870;2023-04-08T10:45:36;102643.38;;;21.51;42.87
51496;BME280;37572;52.094;4.870;2023-04-08T10:48:18;102638.97;;;21.50;43.13
51496;BME280;37572;52.094;4.870;2023-04-08T10:50:54;102638.91;;;21.58;43.33
51496;BME280;37572;52.094;4.870;2023-04-08T10:53:28;102629.00;;;21.65;43.09
51496;BME280;37572;52.094;4.870;2023-04-08T10:56:07;102633.66;;;21.71;42.94
51496;BME280;37572;52.094;4.870;2023-04-08T10:58:47;102638.16;;;21.64;42.55
51496;BME280;37572;52.094;4.870;2023-04-08T11:01:12;102629.09;;;21.57;42.48
51496;BME280;37572;52.094;4.870;2023-04-08T11:03:37;102635.16;;;21.59;42.16
51496;BME280;37572;52.094;4.870;2023-04-08T11:06:03;102625.63;;;21.63;41.84
51496;BME280;37572;52.094;4.870;2023-04-08T11:08:30;102622.91;;;21.63;41.68
51496;BME280;37572;52.094;4.870;2023-04-08T11:10:57;102629.84;;;21.66;41.98
51496;BME280;37572;52.094;4.870;2023-04-08T11:13:22;102629.66;;;21.67;42.03
51496;BME280;37572;52.094;4.870;2023-04-08T11:15:49;102625.53;;;21.71;41.80
51496;BME280;37572;52.094;4.870;2023-04-08T11:18:15;102624.06;;;21.69;42.30
51496;BME280;37572;52.094;4.870;2023-04-08T11:20:42;102623.78;;;21.64;42.27
51496;BME280;37572;52.094;4.870;2023-04-08T11:23:15;102622.19;;;21.69;42.31
51496;BME280;37572;52.094;4.870;2023-04-08T11:25:42;102621.34;;;21.84;42.07
51496;BME280;37572;52.094;4.870;2023-04-08T11:28:08;102622.28;;;21.91;42.37
51496;BME280;37572;52.094;4.870;2023-04-08T11:30:33;102621.53;;;21.97;42.24
51496;BME280;37572;52.094;4.870;2023-04-08T11:32:59;102623.00;;;21.99;42.05
51496;BME280;37572;52.094;4.870;2023-04-08T11:35:29;102620.75;;;21.88;42.33
51496;BME280;37572;52.094;4.870;2023-04-08T11:37:55;102629.09;;;21.87;42.28
51496;BME280;37572;52.094;4.870;2023-04-08T11:40:21;102623.78;;;21.93;42.03
51496;BME280;37572;52.094;4.870;2023-04-08T11:42:48;102630.75;;;22.03;41.72
51496;BME280;37572;52.094;4.870;2023-04-08T11:45:15;102626.66;;;22.07;41.95
51496;BME280;37572;52.094;4.870;2023-04-08T11:47:41;102625.78;;;22.06;41.92
51496;BME280;37572;52.094;4.870;2023-04-08T11:50:08;102626.25;;;22.10;42.13
51496;BME280;37572;52.094;4.870;2023-04-08T11:52:47;102624.22;;;22.12;42.21
51496;BME280;37572;52.094;4.870;2023-04-08T11:55:25;102625.22;;;22.11;42.00
51496;BME280;37572;52.094;4.870;2023-04-08T11:57:51;102624.22;;;22.12;42.00
51496;BME280;37572;52.094;4.870;2023-04-08T12:00:17;102625.88;;;22.13;42.08
51496;BME280;37572;52.094;4.870;2023-04-08T12:02:43;102620.00;;;22.09;42.41
51496;BME280;37572;52.094;4.870;2023-04-08T12:05:08;102625.88;;;22.13;42.14
51496;BME280;37572;52.094;4.870;2023-04-08T12:07:33;102622.16;;;22.14;42.16
51496;BME280;37572;52.094;4.870;2023-04-08T12:09:59;102625.44;;;22.09;42.17
51496;BME280;37572;52.094;4.870;2023-04-08T12:12:25;102617.00;;;22.04;41.84
51496;BME280;37572;52.094;4.870;2023-04-08T12:14:50;102624.59;;;22.09;42.10
51496;BME280;37572;52.094;4.870;2023-04-08T12:17:16;102620.09;;;22.16;42.02
51496;BME280;37572;52.094;4.870;2023-04-08T12:19:41;102618.88;;;22.18;41.89
51496;BME280;37572;52.094;4.870;2023-04-08T12:22:06;102624.13;;;22.20;42.07
51496;BME280;37572;52.094;4.870;2023-04-08T12:24:32;102623.06;;;22.21;42.16
51496;BME280;37572;52.094;4.870;2023-04-08T12:26:57;102620.53;;;22.20;41.89
51496;BME280;37572;52.094;4.870;2023-04-08T12:29:22;102624.31;;;22.18;41.94
51496;BME280;37572;52.094;4.870;2023-04-08T12:31:48;102617.94;;;22.11;41.68
51496;BME280;37572;52.094;4.870;2023-04-08T12:34:13;102624.59;;;22.09;41.87
51496;BME280;37572;52.094;4.870;2023-04-08T12:36:38;102632.53;;;22.10;41.87
51496;BME280;37572;52.094;4.870;2023-04-08T12:39:03;102630.94;;;22.16;41.74
51496;BME280;37572;52.094;4.870;2023-04-08T12:41:29;102631.66;;;22.25;41.82
51496;BME280;37572;52.094;4.870;2023-04-08T12:43:54;102627.19;;;22.32;41.40
51496;BME280;37572;52.094;4.870;2023-04-08T12:46:20;102623.44;;;22.33;41.70
51496;BME280;37572;52.094;4.870;2023-04-08T12:48:45;102624.63;;;22.45;41.07
51496;BME280;37572;52.094;4.870;2023-04-08T12:51:12;102626.44;;;22.60;41.26
51496;BME280;37572;52.094;4.870;2023-04-08T12:53:37;102629.28;;;22.73;40.74
51496;BME280;37572;52.094;4.870;2023-04-08T12:56:03;102632.00;;;22.95;40.58
51496;BME280;37572;52.094;4.870;2023-04-08T12:58:29;102628.63;;;23.36;39.39
51496;BME280;37572;52.094;4.870;2023-04-08T13:00:54;102632.72;;;24.23;37.70
51496;BME280;37572;52.094;4.870;2023-04-08T13:03:20;102631.75;;;25.78;34.89
51496;BME280;37572;52.094;4.870;2023-04-08T13:05:45;102631.25;;;27.79;31.40
51496;BME280;37572;52.094;4.870;2023-04-08T13:08:11;102624.84;;;28.94;30.08